createdAt,value
2023-04-28T00:02:28.017Z,1.88
2023-04-28T00:07:31.755Z,1.83
2023-04-28T00:12:35.679Z,2.17
2023-04-28T00:17:40.923Z,1.70
2023-04-28T00:22:44.804Z,1.77
2023-04-28T00:27:48.458Z,1.70
2023-04-28T00:32:53.713Z,2.38
2023-04-28T00:37:57.221Z,2.17
2023-04-28T00:43:01.440Z,2.97
2023-04-28T00:48:06.444Z,2.60
2023-04-28T00:53:10.830Z,3.00
2023-04-28T00:58:14.346Z,2.50
2023-04-28T01:03:19.201Z,3.05
2023-04-28T01:08:24.146Z,2.80
2023-04-28T01:13:53.208Z,3.42
2023-04-28T01:18:58.485Z,2.38
2023-04-28T01:24:06.463Z,4.50
2023-04-28T01:29:10.032Z,2.88
2023-04-28T01:34:14.613Z,3.53
2023-04-28T01:39:20.365Z,4.75
2023-04-28T01:44:24.179Z,3.10
2023-04-28T01:49:27.671Z,3.95
2023-04-28T01:54:32.471Z,4.43
2023-04-28T01:59:35.962Z,4.40
2023-04-28T02:04:39.644Z,3.42
2023-04-28T02:09:44.389Z,4.00
2023-04-28T02:14:47.753Z,3.80
2023-04-28T02:19:56.336Z,4.28
2023-04-28T02:25:02.040Z,4.78
2023-04-28T02:35:09.994Z,3.57
2023-04-28T02:40:15.258Z,4.38
2023-04-28T02:45:19.790Z,5.60
2023-04-28T02:50:23.382Z,4.55
2023-04-28T02:55:28.513Z,5.57
2023-04-28T03:00:32.047Z,4.47
2023-04-28T03:05:35.683Z,5.22
2023-04-28T03:10:40.774Z,5.57
2023-04-28T03:20:48.680Z,5.60
2023-04-28T03:25:53.399Z,3.90
2023-04-28T03:30:57.538Z,5.40
2023-04-28T03:36:00.968Z,5.50
2023-04-28T03:41:05.737Z,4.35
2023-04-28T03:46:27.786Z,5.00
2023-04-28T03:51:33.023Z,4.40
2023-04-28T04:01:41.877Z,5.28
2023-04-28T04:06:45.427Z,3.92
2023-04-28T04:11:50.972Z,4.10
2023-04-28T04:16:55.535Z,4.13
2023-04-28T04:21:59.886Z,4.15
2023-04-28T04:27:05.570Z,4.18
2023-04-28T04:32:13.115Z,3.78
2023-04-28T04:37:19.471Z,4.68
2023-04-28T04:42:37.354Z,4.60
2023-04-28T04:47:44.861Z,4.97
2023-04-28T04:52:49.281Z,3.85
2023-04-28T04:57:55.120Z,3.92
2023-04-28T05:03:18.099Z,3.72
2023-04-28T05:13:28.286Z,3.20
2023-04-28T05:18:36.867Z,3.40
2023-04-28T05:23:41.900Z,3.65
2023-04-28T05:28:47.056Z,3.25
2023-04-28T05:33:51.967Z,4.05
2023-04-28T05:38:56.064Z,3.27
2023-04-28T05:44:02.321Z,3.88
2023-04-28T05:49:06.736Z,3.40
2023-04-28T05:54:14.567Z,3.30
2023-04-28T05:59:24.384Z,3.35
2023-04-28T06:04:28.772Z,3.70
2023-04-28T06:09:33.088Z,3.47
2023-04-28T06:14:38.450Z,3.40
2023-04-28T06:19:42.420Z,3.15
2023-04-28T06:24:47.953Z,3.28
2023-04-28T06:29:57.724Z,3.88
2023-04-28T06:35:01.737Z,3.50
2023-04-28T06:40:06.634Z,3.15
2023-04-28T06:50:16.709Z,3.30
2023-04-28T06:55:20.731Z,3.20
2023-04-28T07:00:26.415Z,3.30
2023-04-28T07:05:30.143Z,2.53
2023-04-28T07:10:34.122Z,2.45
2023-04-28T07:15:39.066Z,1.92
2023-04-28T07:20:42.648Z,2.50
2023-04-28T07:25:46.617Z,2.30
2023-04-28T07:30:53.075Z,2.27
2023-04-28T07:35:56.885Z,2.33
2023-04-28T07:41:00.938Z,2.33
2023-04-28T07:46:07.264Z,2.63
2023-04-28T07:51:11.117Z,2.40
2023-04-28T07:56:15.258Z,2.37
2023-04-28T08:01:21.427Z,2.63
2023-04-28T08:06:25.674Z,3.03
2023-04-28T08:11:29.769Z,2.43
2023-04-28T08:16:38.408Z,3.13
2023-04-28T08:21:42.228Z,3.28
2023-04-28T08:26:46.253Z,2.42
2023-04-28T08:31:51.598Z,3.13
2023-04-28T08:36:56.311Z,2.58
2023-04-28T08:41:59.847Z,2.65
2023-04-28T08:47:09.931Z,2.50
2023-04-28T08:52:17.527Z,3.08
2023-04-28T08:57:21.351Z,2.70
2023-04-28T09:02:27.256Z,3.00
2023-04-28T09:07:33.120Z,2.70
2023-04-28T09:12:37.969Z,3.47
2023-04-28T09:17:51.026Z,3.50
2023-04-28T09:22:56.726Z,2.60
2023-04-28T09:28:21.037Z,3.25
2023-04-28T09:38:31.639Z,3.50
2023-04-28T09:43:36.040Z,3.25
2023-04-28T09:48:41.598Z,3.60
2023-04-28T09:53:47.495Z,3.08
2023-04-28T09:58:54.011Z,3.85
2023-04-28T10:04:01.398Z,3.65
2023-04-28T10:09:05.957Z,3.70
2023-04-28T10:14:11.230Z,4.07
2023-04-28T10:24:29.686Z,2.83
2023-04-28T10:29:33.725Z,3.13
2023-04-28T10:34:39.472Z,4.17
2023-04-28T10:40:16.688Z,3.55
2023-04-28T10:45:57.744Z,4.00
2023-04-28T10:51:28.280Z,3.20
2023-04-28T10:56:31.811Z,3.45
2023-04-28T11:01:36.946Z,3.78
2023-04-28T11:06:44.395Z,4.18
2023-04-28T11:12:07.172Z,4.00
2023-04-28T11:17:13.938Z,3.33
2023-04-28T11:22:21.105Z,3.20
2023-04-28T11:27:25.695Z,4.03
2023-04-28T11:32:32.035Z,3.78
2023-04-28T11:37:37.317Z,3.75
2023-04-28T11:47:52.746Z,3.47
2023-04-28T11:53:03.163Z,3.43
2023-04-28T11:58:22.382Z,3.28
2023-04-28T12:03:26.342Z,2.78
2023-04-28T12:08:31.686Z,3.72
2023-04-28T12:13:36.405Z,3.13
2023-04-28T12:18:58.901Z,3.58
2023-04-28T12:24:19.534Z,3.30
2023-04-28T12:29:40.271Z,3.63
2023-04-28T12:34:46.420Z,3.95
2023-04-28T12:39:51.504Z,3.53
2023-04-28T12:44:55.075Z,3.95
2023-04-28T12:49:59.141Z,4.10
2023-04-28T12:55:04.166Z,4.10
2023-04-28T13:00:09.648Z,3.67
2023-04-28T13:05:14.628Z,3.72
2023-04-28T13:10:22.418Z,3.85
2023-04-28T13:15:27.385Z,3.33
2023-04-28T13:20:31.227Z,3.38
2023-04-28T13:25:36.660Z,4.15
2023-04-28T13:30:40.199Z,3.38
2023-04-28T13:35:44.423Z,3.70
2023-04-28T13:40:49.410Z,4.82
2023-04-28T13:45:53.699Z,3.92
2023-04-28T13:50:57.549Z,4.07
2023-04-28T13:56:04.915Z,3.50
2023-04-28T14:01:09.115Z,4.63
2023-04-28T14:06:12.964Z,4.50
2023-04-28T14:11:18.048Z,3.70
2023-04-28T14:21:24.828Z,3.90
2023-04-28T14:26:30.092Z,3.67
2023-04-28T14:31:34.007Z,3.67
2023-04-28T14:36:38.406Z,4.07
2023-04-28T14:41:43.097Z,3.95
2023-04-28T14:46:47.081Z,3.47
2023-04-28T14:51:51.172Z,3.73
2023-04-28T14:56:56.329Z,5.22
2023-04-28T15:07:03.812Z,4.65
2023-04-28T15:12:08.848Z,3.95
2023-04-28T15:22:15.667Z,3.85
2023-04-28T15:27:20.725Z,3.35
2023-04-28T15:37:43.019Z,5.93
2023-04-28T15:42:54.289Z,4.38
2023-04-28T15:47:57.804Z,5.03
2023-04-28T15:53:01.472Z,7.47
2023-04-28T15:58:06.366Z,6.07
2023-04-28T16:03:09.997Z,4.07
2023-04-28T16:08:14.179Z,3.67
2023-04-28T16:13:19.396Z,3.90
2023-04-28T16:23:26.103Z,4.15
2023-04-28T16:28:31.039Z,3.50
2023-04-28T16:33:35.007Z,4.88
2023-04-28T16:38:38.729Z,3.90
2023-04-28T16:43:43.442Z,3.95
2023-04-28T16:48:47.246Z,4.32
2023-04-28T16:53:50.644Z,4.68
2023-04-28T16:58:55.774Z,5.25
2023-04-28T17:09:04.997Z,5.22
2023-04-28T17:14:09.925Z,5.40
2023-04-28T17:19:14.445Z,5.20
2023-04-28T17:24:18.277Z,4.77
2023-04-28T17:29:23.286Z,5.00
2023-04-28T17:39:30.626Z,6.80
2023-04-28T17:44:35.683Z,5.97
2023-04-28T17:49:40.488Z,6.60
2023-04-28T17:54:44.633Z,6.85
2023-04-28T17:59:50.958Z,7.25
2023-04-28T18:04:55.517Z,6.72
2023-04-28T18:09:59.348Z,6.10
2023-04-28T18:15:05.247Z,7.43
2023-04-28T18:20:10.244Z,7.15
2023-04-28T18:25:16.740Z,7.85
2023-04-28T18:30:21.811Z,8.65
2023-04-28T18:35:25.929Z,7.32
2023-04-28T18:40:33.030Z,9.25
2023-04-28T18:45:41.692Z,8.82
2023-04-28T18:50:50.156Z,8.57
2023-04-28T18:55:54.789Z,9.15
2023-04-28T19:01:00.068Z,9.13
2023-04-28T19:06:04.249Z,8.15
2023-04-28T19:11:09.421Z,8.43
2023-04-28T19:16:14.670Z,8.38
2023-04-28T19:26:21.884Z,7.00
2023-04-28T19:31:27.094Z,7.05
2023-04-28T19:41:35.916Z,6.53
2023-04-28T19:46:40.878Z,6.43
2023-04-28T19:56:49.194Z,6.57
2023-04-28T20:01:54.225Z,6.15
2023-04-28T20:12:04.024Z,6.40
2023-04-28T20:17:09.192Z,5.63
2023-04-28T20:27:16.183Z,5.45
2023-04-28T20:32:21.033Z,5.88
2023-04-28T20:37:26.375Z,5.55
2023-04-28T20:47:36.452Z,5.63
2023-04-28T20:52:39.876Z,5.30
2023-04-28T20:57:43.444Z,5.57
2023-04-28T21:02:48.337Z,5.32
2023-04-28T21:12:55.653Z,4.95
2023-04-28T21:18:00.589Z,4.90
2023-04-28T21:23:04.292Z,5.18
2023-04-28T21:28:08.327Z,5.38
2023-04-28T21:33:13.181Z,6.03
2023-04-28T21:38:17.274Z,5.70
2023-04-28T21:43:20.717Z,6.07
2023-04-28T21:48:25.411Z,5.65
2023-04-28T21:53:29.407Z,6.43
2023-04-28T21:58:33.567Z,6.03
2023-04-28T22:03:41.054Z,6.05
2023-04-28T22:08:44.603Z,5.70
2023-04-28T22:13:48.523Z,5.88
2023-04-28T22:18:54.717Z,5.22
2023-04-28T22:23:58.446Z,4.80
2023-04-28T22:29:05.713Z,5.50
2023-04-28T22:34:10.515Z,5.63
2023-04-28T22:39:13.836Z,4.93
2023-04-28T22:44:18.123Z,5.30
2023-04-28T22:49:25.908Z,4.85
2023-04-28T22:54:30.507Z,5.30
2023-04-28T22:59:33.804Z,5.40
2023-04-28T23:04:38.706Z,5.20
2023-04-28T23:14:45.872Z,5.93
2023-04-28T23:19:51.044Z,5.10
2023-04-28T23:29:57.890Z,5.07
2023-04-28T23:35:03.399Z,5.07
2023-04-28T23:40:07.907Z,4.72
2023-04-28T23:45:12.012Z,4.93
2023-04-28T23:50:17.564Z,5.13
2023-04-28T23:55:20.828Z,5.13
